Empire, Nevada
Current Conditions -  °F | °C
As of 10:53 AM on Monday 20 Oct 2014 (Local Time) from KLOL Reporting Station
Clear Clear  
Wind Chill: 17°   Ceiling: Unl
Heat Index: 17°   Visibility: 10mi
Dew Point: -3°   Wind: 0mph
Humidity: 26%   Direction: NA
Pressure: 29.94"   Gusts: NA
Location:  40.58°N, 119.34°W
Report Text: KLOL 201753Z AUTO 00000KT 10SM CLR 17/M03 A2994 RMK AO2 SLP126 T01671028 10167 21006 50000
Loading
Personal Weather Stations






























Interactive Weather Map
Tropical Storm Tracking
New forecast layout! Learn more

10-Day Weather Forecast

Advertisements
Track Severe Weather on mobile